Time;durP1;ratioP1;P1;durP2;ratioP2;P2;SDS_P1;SDS_P2;PMS_P1;PMS_P2;Temp;Humidity;BMP_temperature;BMP_pressure;BME280_temperature;BME280_humidity;BME280_pressure;Samples;Min_cycle;Max_cycle;Signal;HPM_P1;HPM_P2
2021/05/11 00:00:45;;;;;;;7.75;1.90;;;;;;;14.57;60.41;100744.22;5303823;28;20139;-66
2021/05/11 00:03:16;;;;;;;5.88;1.70;;;;;;;14.59;59.80;100730.88;5300524;28;20782;-66
2021/05/11 00:05:47;;;;;;;4.57;1.50;;;;;;;14.58;60.00;100735.34;5304561;28;20376;-66
2021/05/11 00:08:19;;;;;;;4.85;1.92;;;;;;;14.57;59.88;100738.13;5299512;28;20827;-66
2021/05/11 00:10:50;;;;;;;5.13;1.85;;;;;;;14.59;59.28;100736.16;5300604;28;20024;-67
2021/05/11 00:13:21;;;;;;;5.50;1.55;;;;;;;14.63;58.39;100737.50;5301810;28;20028;-66
2021/05/11 00:15:53;;;;;;;6.40;2.28;;;;;;;14.59;59.10;100738.81;5299861;28;20028;-66
2021/05/11 00:18:24;;;;;;;7.35;2.30;;;;;;;14.60;58.78;100743.91;5305359;28;20031;-66
2021/05/11 00:20:55;;;;;;;3.92;1.85;;;;;;;14.59;58.47;100733.53;5296949;28;20047;-66
2021/05/11 00:23:27;;;;;;;5.70;1.90;;;;;;;14.58;58.61;100739.75;5301149;28;20020;-67
2021/05/11 00:25:58;;;;;;;5.95;2.08;;;;;;;14.53;59.21;100734.16;5303335;28;20036;-65
2021/05/11 00:28:30;;;;;;;5.97;2.45;;;;;;;14.49;59.47;100730.16;5302053;28;20564;-65
2021/05/11 00:31:01;;;;;;;5.30;2.13;;;;;;;14.42;60.09;100737.84;5302225;28;20472;-66
2021/05/11 00:33:32;;;;;;;6.28;2.42;;;;;;;14.43;59.32;100738.69;5303550;28;20028;-66
2021/05/11 00:36:04;;;;;;;6.70;2.50;;;;;;;14.41;60.03;100740.66;5302853;28;20020;-66
2021/05/11 00:38:35;;;;;;;4.60;2.05;;;;;;;14.39;60.08;100737.34;5301104;28;20024;-66
2021/05/11 00:41:06;;;;;;;5.90;2.40;;;;;;;14.36;60.31;100741.97;5301196;28;20032;-66
2021/05/11 00:43:45;;;;;;;5.05;2.20;;;;;;;14.40;60.90;100741.66;5302859;28;20384;-65
2021/05/11 00:46:18;;;;;;;4.38;2.00;;;;;;;14.32;60.79;100737.16;5305065;28;20032;-66
2021/05/11 00:48:49;;;;;;;6.97;2.30;;;;;;;14.30;61.30;100729.41;5306104;28;20146;-66
2021/05/11 00:51:21;;;;;;;4.80;2.05;;;;;;;14.26;60.59;100725.44;5301288;28;20343;-66
2021/05/11 00:53:53;;;;;;;7.55;2.25;;;;;;;14.17;61.60;100721.13;5306952;28;20059;-66
2021/05/11 00:56:26;;;;;;;4.32;1.98;;;;;;;14.20;61.10;100720.78;5305701;28;20031;-66
2021/05/11 00:58:57;;;;;;;7.13;2.70;;;;;;;14.18;61.64;100722.75;5307435;28;20023;-66
2021/05/11 01:01:28;;;;;;;4.50;2.20;;;;;;;14.13;61.43;100714.50;5308462;28;20034;-67
2021/05/11 01:03:59;;;;;;;4.38;1.85;;;;;;;14.07;62.33;100715.13;5308081;28;20032;-66
2021/05/11 01:06:31;;;;;;;4.95;2.10;;;;;;;14.06;61.22;100718.75;5306645;28;20031;-66
2021/05/11 01:09:03;;;;;;;5.72;2.20;;;;;;;14.02;61.88;100709.50;5308056;28;20024;-65
2021/05/11 01:11:36;;;;;;;4.47;2.03;;;;;;;13.97;62.29;100706.50;5309241;28;20158;-66
2021/05/11 01:14:08;;;;;;;6.13;2.70;;;;;;;13.94;62.88;100701.53;5307477;28;20267;-66
2021/05/11 01:16:40;;;;;;;6.13;2.40;;;;;;;13.95;63.50;100706.66;5308455;28;20101;-66
2021/05/11 01:24:51;;;;;;;5.47;2.80;;;;;;;13.90;63.27;100702.81;5277224;28;20089;-66
2021/05/11 01:27:34;;;;;;;9.60;3.28;;;;;;;13.85;63.24;100704.13;5307727;28;20020;-66
2021/05/11 01:47:01;;;;;;;7.80;3.40;;;;;;;13.66;64.22;100700.84;5301119;28;20043;-66
2021/05/11 02:22:54;;;;;;;10.73;4.43;;;;;;;13.31;67.02;100716.53;5308796;28;20036;-65
2021/05/11 02:25:25;;;;;;;6.43;3.90;;;;;;;13.28;66.76;100708.94;5307121;28;20366;-65
2021/05/11 02:27:57;;;;;;;8.02;3.67;;;;;;;13.28;67.03;100719.47;5306818;28;20032;-66
2021/05/11 02:30:28;;;;;;;9.60;3.40;;;;;;;13.26;66.80;100718.81;5305643;28;20039;-66
2021/05/11 02:33:01;;;;;;;8.00;2.95;;;;;;;13.27;66.58;100717.81;5308522;28;20031;-65
2021/05/11 02:35:34;;;;;;;;;;;;;;;13.54;64.43;100711.63;5307843;28;20416;-67
2021/05/11 02:38:05;;;;;;;6.75;3.25;;;;;;;13.30;66.77;100704.38;5304885;28;19912;-66
2021/05/11 02:40:37;;;;;;;7.15;3.78;;;;;;;13.27;66.99;100704.66;5306498;28;20117;-66
2021/05/11 02:43:25;;;;;;;7.28;3.33;;;;;;;13.24;66.91;100714.66;5305625;28;20365;-66
2021/05/11 02:45:56;;;;;;;7.03;3.30;;;;;;;13.24;66.16;100709.41;5307504;28;20038;-66
2021/05/11 02:48:27;;;;;;;7.35;3.45;;;;;;;13.25;66.85;100717.13;5305084;28;20044;-66
2021/05/11 02:50:58;;;;;;;7.43;3.45;;;;;;;13.24;66.85;100722.56;5306079;28;20035;-65
2021/05/11 02:53:30;;;;;;;6.95;2.88;;;;;;;13.22;67.15;100720.06;5305125;28;20074;-67
2021/05/11 02:56:01;;;;;;;9.55;3.17;;;;;;;13.13;67.91;100723.56;5305447;28;20027;-66
2021/05/11 02:58:35;;;;;;;7.45;2.90;;;;;;;13.17;67.19;100724.91;5306349;28;20039;-66
2021/05/11 03:01:06;;;;;;;9.45;3.42;;;;;;;13.20;67.49;100715.91;5309561;28;20030;-65
2021/05/11 03:03:37;;;;;;;9.35;3.13;;;;;;;13.22;67.14;100722.69;5304184;28;20031;-65
2021/05/11 03:06:10;;;;;;;10.93;3.40;;;;;;;13.24;66.77;100712.84;5304888;28;20314;-66
2021/05/11 03:08:43;;;;;;;10.30;3.88;;;;;;;13.27;66.17;100720.44;5306937;28;20396;-66
2021/05/11 03:11:15;;;;;;;8.38;3.17;;;;;;;13.26;66.33;100718.81;5306109;28;20036;-66
2021/05/11 03:13:46;;;;;;;6.95;3.20;;;;;;;13.24;66.35;100718.13;5304704;28;20039;-66
2021/05/11 03:16:17;;;;;;;8.25;2.75;;;;;;;13.27;65.66;100711.72;5304079;28;20031;-66
2021/05/11 03:18:49;;;;;;;6.78;3.40;;;;;;;13.26;65.38;100710.06;5306759;28;20127;-66
2021/05/11 03:21:20;;;;;;;8.88;2.95;;;;;;;13.26;66.04;100710.06;5305017;28;20498;-67
2021/05/11 03:23:52;;;;;;;8.70;2.97;;;;;;;13.24;65.90;100707.59;5306502;28;20027;-65
2021/05/11 03:26:23;;;;;;;7.38;2.78;;;;;;;13.24;65.98;100701.50;5305392;28;20019;-67
2021/05/11 03:28:54;;;;;;;6.20;2.80;;;;;;;13.27;65.51;100699.41;5307164;28;20121;-66
2021/05/11 03:31:25;;;;;;;8.00;3.00;;;;;;;13.26;66.23;100694.28;5305201;28;20427;-66
2021/05/11 03:33:57;;;;;;;8.38;2.78;;;;;;;13.26;66.19;100699.53;5306090;28;20140;-67
2021/05/11 03:36:28;;;;;;;5.25;2.80;;;;;;;13.28;65.78;100700.22;5305633;28;20036;-67
2021/05/11 03:39:04;;;;;;;5.20;2.45;;;;;;;13.26;66.25;100699.53;5301875;28;20070;-67
2021/05/11 03:41:45;;;;;;;6.93;3.15;;;;;;;13.25;66.18;100703.16;5301442;28;20036;-67
2021/05/11 03:44:20;;;;;;;6.88;2.83;;;;;;;13.24;66.12;100707.59;5307008;28;20031;-66
2021/05/11 03:46:51;;;;;;;8.23;3.03;;;;;;;13.24;66.47;100712.84;5303140;28;20028;-66
2021/05/11 03:49:23;;;;;;;7.15;2.70;;;;;;;13.25;65.94;100713.69;5303879;28;20034;-66
2021/05/11 03:51:54;;;;;;;7.35;3.05;;;;;;;13.24;66.45;100704.97;5304731;28;20023;-65
2021/05/11 03:54:25;;;;;;;8.43;3.10;;;;;;;13.26;66.03;100715.31;5303064;28;20088;-66
2021/05/11 03:56:57;;;;;;;7.25;2.67;;;;;;;13.26;65.88;100708.28;5305794;28;20035;-66
2021/05/11 03:59:28;;;;;;;9.52;3.00;;;;;;;13.26;66.18;100705.66;5305682;28;20115;-66
2021/05/11 04:01:59;;;;;;;9.05;3.67;;;;;;;13.27;66.46;100709.09;5294793;28;20631;-66
2021/05/11 04:04:31;;;;;;;12.70;3.22;;;;;;;13.24;66.08;100709.41;5304276;28;20027;-66
2021/05/11 04:07:05;;;;;;;5.60;2.87;;;;;;;13.26;66.07;100718.81;5302749;28;20039;-66
2021/05/11 04:09:43;;;;;;;7.93;3.15;;;;;;;13.24;66.54;100715.47;5303754;28;20027;-66
2021/05/11 04:12:32;;;;;;;6.30;3.03;;;;;;;13.24;66.08;100718.13;5304345;28;20231;-67
2021/05/11 04:17:45;;;;;;;5.32;2.72;;;;;;;13.25;66.30;100722.38;5284064;28;20500;-66
2021/05/11 04:20:16;;;;;;;8.40;2.92;;;;;;;13.25;65.90;100721.56;5307128;28;20157;-66
2021/05/11 04:22:48;;;;;;;8.40;3.70;;;;;;;13.24;66.59;100715.47;5307162;28;20019;-66
2021/05/11 04:25:20;;;;;;;7.57;3.55;;;;;;;13.24;66.55;100714.66;5304883;28;20031;-66
2021/05/11 04:27:51;;;;;;;8.33;3.10;;;;;;;13.26;66.88;100715.31;5293942;28;20464;-65
2021/05/11 04:30:23;;;;;;;7.80;3.33;;;;;;;13.23;66.83;100719.09;5305238;28;20285;-66
2021/05/11 04:32:54;;;;;;;8.30;3.30;;;;;;;13.20;66.84;100710.66;5306515;28;20333;-68
2021/05/11 04:35:25;;;;;;;6.80;3.28;;;;;;;13.23;67.28;100719.09;5306341;28;20039;-66
2021/05/11 04:37:57;;;;;;;9.70;3.28;;;;;;;13.24;67.89;100723.38;5303685;28;20063;-67
2021/05/11 04:40:28;;;;;;;8.65;3.63;;;;;;;13.23;68.28;100721.72;5306971;28;20426;-66
2021/05/11 04:42:59;;;;;;;8.40;3.83;;;;;;;13.22;68.99;100724.47;5306667;28;20389;-67
2021/05/11 04:45:33;;;;;;;7.05;3.55;;;;;;;13.19;68.90;100730.03;5303267;28;20489;-66
2021/05/11 04:48:05;;;;;;;7.55;3.83;;;;;;;13.21;70.19;100738.59;5306187;28;20529;-66
2021/05/11 04:50:37;;;;;;;6.30;3.53;;;;;;;13.20;70.73;100731.69;5305331;28;20030;-66
2021/05/11 04:53:08;;;;;;;8.32;3.63;;;;;;;13.22;69.84;100730.56;5303024;28;20030;-66
2021/05/11 04:55:39;;;;;;;6.93;3.58;;;;;;;13.23;70.40;100737.50;5300048;28;20032;-67
2021/05/11 04:58:11;;;;;;;8.95;3.90;;;;;;;13.23;70.51;100731.41;5304051;28;20040;-66
2021/05/11 05:00:42;;;;;;;9.05;3.67;;;;;;;13.20;70.86;100731.69;5301142;28;20028;-67
2021/05/11 05:03:15;;;;;;;9.13;3.80;;;;;;;13.21;70.66;100725.44;5304359;28;20020;-66
2021/05/11 05:05:46;;;;;;;7.38;4.05;;;;;;;13.24;70.28;100722.56;5302737;28;20471;-66
2021/05/11 05:08:18;;;;;;;8.43;3.70;;;;;;;13.21;71.51;100720.19;5301784;28;20063;-66
2021/05/11 05:10:50;;;;;;;9.85;3.67;;;;;;;13.24;71.01;100725.19;5302838;28;20255;-66
2021/05/11 05:13:22;;;;;;;6.93;3.70;;;;;;;13.28;70.73;100723.91;5304517;28;20549;-66
2021/05/11 05:15:58;;;;;;;8.98;3.97;;;;;;;13.30;70.53;100725.41;5303115;28;20027;-67
2021/05/11 05:18:30;;;;;;;8.18;4.63;;;;;;;13.28;70.05;100727.34;5302030;28;20077;-67
2021/05/11 05:21:05;;;;;;;9.70;4.50;;;;;;;13.30;70.94;100728.03;5306672;28;20119;-67
2021/05/11 05:23:43;;;;;;;9.32;3.80;;;;;;;13.30;70.72;100722.78;5298167;28;20023;-68
2021/05/11 05:26:21;;;;;;;8.57;3.97;;;;;;;13.25;70.93;100729.47;5308270;28;20046;-69
2021/05/11 05:28:52;;;;;;;10.35;4.60;;;;;;;13.33;71.59;100737.41;5305035;28;20024;-68
2021/05/11 05:31:24;;;;;;;6.95;4.20;;;;;;;13.42;70.27;100735.72;5312632;28;20031;-68
2021/05/11 05:33:55;;;;;;;6.38;4.32;;;;;;;13.44;71.36;100737.19;5311857;28;20111;-66
2021/05/11 05:36:27;;;;;;;9.32;4.38;;;;;;;13.48;70.82;100741.19;5309156;28;20032;-67
2021/05/11 05:38:58;;;;;;;8.75;4.07;;;;;;;13.48;70.47;100728.00;5307581;28;20035;-67
2021/05/11 05:41:31;;;;;;;7.80;4.53;;;;;;;13.54;70.56;100726.59;5305626;28;20023;-67
2021/05/11 05:44:02;;;;;;;10.30;4.30;;;;;;;13.62;70.85;100716.13;5298736;28;20032;-66
2021/05/11 05:46:34;;;;;;;10.95;4.30;;;;;;;13.68;70.64;100726.06;5303711;28;20027;-67
2021/05/11 05:49:07;;;;;;;8.13;3.60;;;;;;;13.76;70.75;100720.03;5272253;28;20052;-67
2021/05/11 05:51:39;;;;;;;10.02;4.28;;;;;;;13.81;70.42;100715.94;5276963;28;20036;-67
2021/05/11 05:54:10;;;;;;;7.63;3.78;;;;;;;13.84;69.86;100710.38;5275761;28;20023;-68
2021/05/11 05:56:42;;;;;;;9.60;4.32;;;;;;;13.87;69.87;100712.69;5285123;28;20043;-67
2021/05/11 05:59:13;;;;;;;7.65;4.25;;;;;;;13.93;70.65;100713.88;5284881;28;20028;-66
2021/05/11 06:01:44;;;;;;;12.73;4.05;;;;;;;14.01;70.20;100713.09;5276244;28;20024;-67
2021/05/11 06:04:19;;;;;;;8.18;3.75;;;;;;;14.03;69.81;100719.03;5271061;28;20047;-66
2021/05/11 06:06:50;;;;;;;8.13;3.28;;;;;;;14.10;70.16;100725.34;5278762;28;20042;-67
2021/05/11 06:09:22;;;;;;;8.37;3.80;;;;;;;14.17;69.65;100726.38;5285746;28;20036;-66
2021/05/11 06:11:58;;;;;;;10.15;4.60;;;;;;;14.20;69.47;100728.69;5272582;28;20401;-67
2021/05/11 06:14:46;;;;;;;10.50;4.38;;;;;;;14.30;69.74;100729.41;5271386;28;20032;-66
2021/05/11 06:17:17;;;;;;;9.40;3.95;;;;;;;14.42;70.01;100731.75;5261988;28;20032;-69
2021/05/11 06:19:52;;;;;;;8.27;3.28;;;;;;;14.44;69.48;100724.53;5268309;28;20040;-67
2021/05/11 07:42:32;;;;;;;8.90;2.60;;;;;;;17.08;58.34;100702.84;6438186;22;701897;-66
2021/05/11 07:45:05;;;;;;;5.68;2.58;;;;;;;17.25;57.50;100700.91;6422289;23;20036;-65
2021/05/11 07:50:45;;;;;;;5.82;2.40;;;;;;;17.35;56.77;100700.66;6434939;23;20017;-66
2021/05/11 08:04:37;;;;;;;7.95;2.30;;;;;;;17.34;55.78;100705.13;6544565;22;20050;-71
2021/05/11 08:10:16;;;;;;;9.20;2.47;;;;;;;17.31;55.99;100705.47;6547580;22;20595;-73
2021/05/11 08:15:39;;;;;;;14.88;3.05;;;;;;;17.18;55.17;100706.06;6534649;22;20015;-74
2021/05/11 08:29:05;;;;;;;13.27;3.28;;;;;;;16.97;56.66;100727.91;6535230;22;20016;-72
2021/05/11 08:31:37;;;;;;;8.55;3.30;;;;;;;16.86;56.12;100730.09;6535023;22;20351;-69
2021/05/11 08:34:08;;;;;;;12.23;3.40;;;;;;;16.87;57.16;100735.22;6536438;22;20639;-68
2021/05/11 08:36:40;;;;;;;10.55;3.13;;;;;;;16.87;57.75;100729.13;6535998;22;20041;-73
2021/05/11 08:39:11;;;;;;;7.05;3.08;;;;;;;16.81;57.90;100730.63;6536250;22;20017;-68
2021/05/11 08:41:42;;;;;;;6.78;2.75;;;;;;;16.83;57.91;100728.63;6532783;22;20115;-68
2021/05/11 08:44:15;;;;;;;7.60;2.60;;;;;;;16.69;58.67;100727.50;6527815;22;20470;-73
2021/05/11 08:46:47;;;;;;;6.22;2.40;;;;;;;16.84;59.45;100729.47;6528866;22;20387;-70
2021/05/11 08:49:18;;;;;;;7.75;3.10;;;;;;;16.80;60.09;100734.28;6527862;22;20015;-69
2021/05/11 08:52:31;;;;;;;5.00;2.45;;;;;;;16.78;60.76;100737.09;6527328;22;20008;-69
2021/05/11 09:06:25;;;;;;;5.72;3.00;;;;;;;16.86;64.57;100735.38;6527843;22;20019;-67
2021/05/11 09:14:29;;;;;;;8.32;3.25;;;;;;;16.82;62.41;100748.16;6538579;22;20007;-67
2021/05/11 09:15:24;;;;;;;8.07;3.40;;;;;;;16.97;63.79;100758.81;6527150;22;20346;-68
2021/05/11 09:26:10;;;;;;;8.15;3.30;;;;;;;16.90;64.55;100755.22;6526692;22;20015;-72
2021/05/11 09:28:52;;;;;;;9.57;4.13;;;;;;;17.08;61.21;100757.59;6526981;22;20482;-73
2021/05/11 09:31:35;;;;;;;8.27;4.10;;;;;;;17.06;63.62;100765.72;6526557;22;20032;-68
2021/05/11 09:34:22;;;;;;;;;;;;;;;17.37;62.02;100764.88;6529068;22;20065;-71
2021/05/11 09:51:52;;;;;;;9.00;4.50;;;;;;;17.20;63.18;100741.16;6528688;22;20011;-71
2021/05/11 10:00:02;;;;;;;7.90;3.58;;;;;;;17.38;62.49;100737.38;6539915;22;20062;-71
2021/05/11 10:10:37;;;;;;;8.27;4.45;;;;;;;17.54;62.32;100742.56;6519195;22;20019;-72
2021/05/11 10:40:51;;;;;;;10.27;5.32;;;;;;;19.35;55.34;100683.69;6526144;22;20015;-68
2021/05/11 10:43:53;;;;;;;11.23;5.10;;;;;;;19.26;55.33;100677.69;6525304;22;20008;-67
2021/05/11 10:49:28;;;;;;;13.00;4.72;;;;;;;19.51;54.61;100671.94;6523910;22;20065;-68
2021/05/11 10:54:47;;;;;;;;;;;;;;;19.95;53.39;100657.56;6528162;22;20115;-67
2021/05/11 10:57:42;;;;;;;8.32;4.32;;;;;;;19.81;52.10;100654.00;6525333;22;19907;-68
2021/05/11 11:03:16;;;;;;;6.80;4.05;;;;;;;19.95;50.99;100663.69;6527097;22;20011;-72
2021/05/11 11:05:57;;;;;;;8.05;3.80;;;;;;;19.85;50.03;100663.22;6522387;22;20523;-71
2021/05/11 11:08:36;;;;;;;8.80;4.57;;;;;;;19.95;51.06;100663.69;6525049;22;20336;-67
2021/05/11 11:11:26;;;;;;;8.15;3.70;;;;;;;20.03;51.40;100657.41;6522188;22;20011;-72
2021/05/11 11:13:58;;;;;;;8.45;3.28;;;;;;;19.88;50.27;100668.97;6525174;22;20010;-72
2021/05/11 11:16:29;;;;;;;11.20;3.88;;;;;;;19.74;50.12;100664.59;6528138;22;20008;-69
2021/05/11 11:19:12;;;;;;;6.10;3.43;;;;;;;19.80;49.57;100663.81;6528186;22;20018;-68
2021/05/11 11:24:28;;;;;;;7.47;3.13;;;;;;;19.52;49.50;100682.41;6533231;22;20107;-68
2021/05/11 11:27:00;;;;;;;6.45;2.30;;;;;;;19.43;46.78;100689.69;6526490;22;20007;-67
2021/05/11 11:29:34;;;;;;;6.87;2.40;;;;;;;19.36;50.20;100686.16;6526350;22;20007;-70
2021/05/11 11:32:05;;;;;;;8.65;3.72;;;;;;;19.27;49.07;100695.25;6525782;22;20801;-68
2021/05/11 11:34:38;;;;;;;9.33;3.07;;;;;;;19.30;49.39;100696.72;6520740;22;20016;-69
2021/05/11 11:37:16;;;;;;;7.15;2.72;;;;;;;19.27;49.63;100702.41;6522946;22;20008;-68
2021/05/11 11:39:50;;;;;;;7.30;3.00;;;;;;;19.17;48.68;100692.94;6527217;22;20077;-69
2021/05/11 11:42:24;;;;;;;6.68;3.10;;;;;;;19.04;50.15;100697.28;6524796;22;20004;-68
2021/05/11 11:47:28;;;;;;;8.35;3.63;;;;;;;18.99;50.18;100705.81;6538621;22;20012;-68
2021/05/11 11:50:05;;;;;;;8.27;3.42;;;;;;;18.99;50.13;100703.19;6526362;22;20101;-72
2021/05/11 12:00:32;;;;;;;10.82;3.58;;;;;;;18.97;53.47;100702.53;6538294;22;20008;-73
2021/05/11 12:03:09;;;;;;;9.50;3.95;;;;;;;18.97;52.92;100697.22;6526531;22;20346;-70
2021/05/11 12:05:48;;;;;;;7.63;3.67;;;;;;;19.13;53.26;100707.63;6527430;22;20012;-69
2021/05/11 12:08:24;;;;;;;9.55;4.05;;;;;;;19.13;54.31;100704.09;6526887;22;20061;-69
2021/05/11 12:10:58;;;;;;;10.73;4.45;;;;;;;19.15;52.95;100697.59;6523935;22;20473;-69
2021/05/11 12:13:40;;;;;;;8.60;4.18;;;;;;;19.29;52.91;100706.53;6524833;22;20003;-72
2021/05/11 12:16:17;;;;;;;8.63;3.72;;;;;;;19.33;52.30;100702.47;6525444;22;20050;-69
2021/05/11 12:19:04;;;;;;;7.20;3.70;;;;;;;19.44;51.88;100704.63;6529103;22;19999;-69
2021/05/11 12:21:49;;;;;;;9.13;4.10;;;;;;;19.52;51.58;100701.00;6527315;22;20004;-72
2021/05/11 12:24:26;;;;;;;9.07;3.72;;;;;;;19.64;51.35;100704.00;6527228;22;20076;-72
2021/05/11 12:27:22;;;;;;;9.60;4.00;;;;;;;19.63;50.50;100703.16;6525046;22;20034;-69
2021/05/11 12:30:02;;;;;;;7.38;3.75;;;;;;;19.63;50.90;100699.69;6527272;22;20016;-70
2021/05/11 12:32:35;;;;;;;5.80;3.28;;;;;;;19.60;51.07;100692.88;6524061;22;20008;-69
2021/05/11 12:35:14;;;;;;;10.60;3.47;;;;;;;19.71;50.61;100702.22;6528602;22;20438;-69
2021/05/11 12:38:17;;;;;;;6.22;3.22;;;;;;;19.90;50.94;100706.00;6526711;22;20448;-70
2021/05/11 12:41:10;;;;;;;9.73;3.28;;;;;;;19.67;48.77;100712.41;6527951;22;20384;-68
2021/05/11 12:43:49;;;;;;;7.68;3.53;;;;;;;19.74;49.11;100709.78;6529086;22;20351;-69
2021/05/11 12:46:24;;;;;;;6.70;2.83;;;;;;;19.69;49.36;100713.00;6529029;22;20008;-69
2021/05/11 12:49:01;;;;;;;6.55;3.30;;;;;;;19.51;49.59;100712.66;6529725;22;20011;-69
2021/05/11 12:51:41;;;;;;;9.98;3.65;;;;;;;19.56;50.48;100709.41;6529215;22;20464;-72
2021/05/11 12:54:30;;;;;;;10.82;3.55;;;;;;;19.71;50.12;100698.72;6525857;22;20023;-71
2021/05/11 12:57:22;;;;;;;6.38;3.10;;;;;;;19.80;50.10;100709.00;6524819;22;20099;-72
2021/05/11 13:02:43;;;;;;;6.72;3.30;;;;;;;19.87;49.10;100709.06;6540550;22;20378;-69
2021/05/11 13:17:11;;;;;;;7.95;3.80;;;;;;;19.47;50.16;100719.34;6429400;23;20009;-72
2021/05/11 13:19:52;;;;;;;8.75;3.05;;;;;;;19.34;52.67;100714.75;6429904;23;20604;-69
2021/05/11 13:25:11;;;;;;;7.43;3.80;;;;;;;19.12;51.44;100713.91;6524132;22;20020;-69
2021/05/11 13:30:29;;;;;;;5.88;3.38;;;;;;;18.98;53.51;100717.47;6529674;22;20015;-71
2021/05/11 13:35:38;;;;;;;3.67;2.10;;;;;;;18.58;53.84;100716.97;6532050;22;20339;-70
2021/05/11 13:38:09;;;;;;;7.00;2.60;;;;;;;18.57;54.73;100717.97;6528321;22;20053;-70
2021/05/11 13:40:40;;;;;;;5.03;2.63;;;;;;;18.56;55.66;100726.97;6528242;22;20006;-71
2021/05/11 13:43:12;;;;;;;7.27;2.87;;;;;;;18.49;56.15;100723.41;6528463;22;20083;-70
2021/05/11 13:45:43;;;;;;;6.50;2.63;;;;;;;18.51;57.48;100725.84;6528901;22;20092;-71
2021/05/11 13:53:33;;;;;;;7.00;2.90;;;;;;;18.44;57.92;100704.53;6533044;22;20439;-71
2021/05/11 13:56:15;;;;;;;7.55;3.00;;;;;;;18.40;57.04;100698.78;6493659;22;20447;-66
2021/05/11 14:04:20;;;;;;;7.03;3.00;;;;;;;18.64;57.97;100662.34;6439404;23;20111;-66
2021/05/11 14:06:51;;;;;;;5.03;2.70;;;;;;;18.74;56.91;100665.53;6449236;23;20020;-65
2021/05/11 14:09:23;;;;;;;8.33;3.00;;;;;;;18.82;55.50;100684.00;6460683;23;20059;-66
2021/05/11 14:11:55;;;;;;;7.37;3.40;;;;;;;18.89;53.71;100690.19;6460343;23;20004;-65
2021/05/11 14:14:26;;;;;;;6.57;3.30;;;;;;;18.84;56.35;100697.09;6459832;23;20012;-65
2021/05/11 14:16:58;;;;;;;8.60;3.50;;;;;;;18.93;56.89;100709.22;6460919;23;20012;-66
2021/05/11 14:19:30;;;;;;;7.50;3.37;;;;;;;18.78;54.62;100713.75;6459827;23;20063;-65
2021/05/11 14:22:02;;;;;;;8.05;4.00;;;;;;;18.67;54.01;100717.69;6458563;23;20000;-66
2021/05/11 14:24:33;;;;;;;7.33;3.27;;;;;;;18.65;54.47;100709.09;6460619;23;20005;-68
2021/05/11 14:27:06;;;;;;;10.23;3.42;;;;;;;18.62;54.67;100709.47;6433007;23;20521;-66
2021/05/11 14:29:37;;;;;;;7.97;3.30;;;;;;;18.64;55.50;100708.28;6459789;23;20000;-66
2021/05/11 14:32:08;;;;;;;5.73;3.03;;;;;;;18.55;53.74;100717.34;6459436;23;20478;-66
2021/05/11 14:34:40;;;;;;;7.70;3.10;;;;;;;18.56;53.93;100726.13;6458234;23;20482;-65
2021/05/11 14:37:12;;;;;;;8.30;3.10;;;;;;;18.56;55.31;100729.63;6458956;23;20009;-66
2021/05/11 14:39:43;;;;;;;6.80;3.50;;;;;;;18.58;54.60;100716.16;6459952;23;20016;-66
2021/05/11 14:42:14;;;;;;;7.85;3.10;;;;;;;18.62;55.06;100694.34;6459998;23;20008;-66
2021/05/11 14:44:46;;;;;;;10.33;3.50;;;;;;;18.49;53.72;100699.53;6460500;23;20008;-66
2021/05/11 14:47:17;;;;;;;8.93;3.50;;;;;;;18.51;53.40;100708.09;6461085;23;20000;-67
2021/05/11 14:49:48;;;;;;;7.13;3.38;;;;;;;18.68;54.00;100714.84;6432926;23;20046;-67
2021/05/11 14:52:20;;;;;;;6.60;3.20;;;;;;;18.68;52.91;100708.72;6459896;23;20018;-67
2021/05/11 14:54:51;;;;;;;8.70;3.50;;;;;;;18.63;53.17;100705.78;6460715;23;20004;-67
2021/05/11 14:57:22;;;;;;;8.23;3.27;;;;;;;18.73;52.30;100713.50;6460822;23;20099;-68
2021/05/11 14:59:54;;;;;;;6.00;2.90;;;;;;;19.02;54.03;100709.94;6460516;23;20009;-66
2021/05/11 15:02:25;;;;;;;7.28;3.22;;;;;;;19.05;54.33;100723.63;6459800;23;20001;-66
2021/05/11 15:04:56;;;;;;;6.73;3.07;;;;;;;19.16;51.99;100725.81;6460946;22;20008;-66
2021/05/11 15:07:27;;;;;;;7.03;3.15;;;;;;;19.29;53.38;100719.00;6459053;23;20009;-67
2021/05/11 15:09:59;;;;;;;8.57;3.13;;;;;;;19.49;53.36;100722.63;6456986;23;20087;-67
2021/05/11 15:12:30;;;;;;;7.30;3.03;;;;;;;19.57;52.72;100711.06;6458939;23;20103;-67
2021/05/11 15:15:03;;;;;;;9.00;3.23;;;;;;;19.54;51.76;100706.13;6457386;22;20008;-67
2021/05/11 15:20:06;;;;;;;6.63;2.53;;;;;;;19.66;50.68;100702.78;6460557;23;20016;-68
2021/05/11 15:22:37;;;;;;;6.53;2.73;;;;;;;19.62;48.92;100698.03;6460159;23;20011;-68
2021/05/11 15:25:09;;;;;;;7.43;3.23;;;;;;;19.43;48.09;100697.69;6458984;22;20005;-67
2021/05/11 15:27:40;;;;;;;6.17;1.87;;;;;;;19.64;49.38;100698.66;6459414;22;20007;-67
2021/05/11 15:30:12;;;;;;;9.77;2.77;;;;;;;19.66;51.51;100707.25;6459731;23;20040;-67
2021/05/11 15:32:58;;;;;;;5.37;2.13;;;;;;;19.74;49.67;100706.31;6459794;22;20412;-68
2021/05/11 15:35:32;;;;;;;9.40;3.05;;;;;;;19.69;49.31;100709.53;6456972;22;20039;-66
2021/05/11 15:38:06;;;;;;;5.90;2.75;;;;;;;19.43;48.38;100715.41;6456147;22;20081;-66
2021/05/11 15:40:40;;;;;;;9.15;3.28;;;;;;;19.38;48.63;100720.50;6458128;22;20676;-65
2021/05/11 15:43:13;;;;;;;8.32;3.08;;;;;;;19.36;48.82;100717.22;6458806;22;20000;-67
2021/05/11 15:45:46;;;;;;;8.50;3.08;;;;;;;19.35;49.50;100723.53;6458691;22;20034;-67
2021/05/11 15:48:18;;;;;;;6.68;3.03;;;;;;;19.43;50.23;100712.75;6459070;22;20016;-67
2021/05/11 15:50:52;;;;;;;5.83;3.00;;;;;;;19.41;50.66;100718.28;6459240;22;20508;-67
2021/05/11 15:53:23;;;;;;;7.35;3.00;;;;;;;19.48;49.92;100721.00;6460153;22;20393;-66
2021/05/11 15:55:54;;;;;;;6.87;3.07;;;;;;;19.36;49.70;100715.38;6460548;22;20093;-66
2021/05/11 15:58:26;;;;;;;10.10;3.53;;;;;;;19.36;50.76;100723.34;6460959;23;20012;-67
2021/05/11 16:00:57;;;;;;;9.27;3.47;;;;;;;19.22;54.01;100732.19;6460836;23;20026;-67
2021/05/11 16:03:29;;;;;;;10.77;4.77;;;;;;;18.78;58.50;100740.28;6460965;22;20119;-66
2021/05/11 16:06:00;;;;;;;11.70;4.63;;;;;;;17.93;64.31;100753.00;6458464;22;20431;-66
2021/05/11 16:08:31;;;;;;;10.43;4.70;;;;;;;17.40;65.73;100765.34;6457079;23;20559;-65
2021/05/11 16:11:03;;;;;;;7.73;4.23;;;;;;;16.90;67.06;100768.47;6457887;23;20572;-66
2021/05/11 16:13:39;;;;;;;12.93;5.57;;;;;;;16.56;70.29;100774.84;6456214;23;20022;-65
2021/05/11 16:16:10;;;;;;;12.25;6.25;;;;;;;16.19;70.94;100778.91;6459332;23;20008;-66
2021/05/11 16:18:42;;;;;;;8.90;4.90;;;;;;;16.09;71.66;100785.38;6458339;23;20106;-65
2021/05/11 16:21:13;;;;;;;10.77;6.72;;;;;;;15.86;71.29;100777.31;6456156;23;20007;-64
2021/05/11 16:23:46;;;;;;;10.50;6.57;;;;;;;15.75;72.38;100774.00;6458733;23;20011;-65
2021/05/11 16:26:18;;;;;;;;;;;;;;;16.10;66.90;100779.94;6460489;23;20498;-65
2021/05/11 16:28:49;;;;;;;10.30;6.10;;;;;;;15.57;72.55;100790.00;6461948;22;19939;-67
2021/05/11 16:31:22;;;;;;;8.80;6.38;;;;;;;15.51;72.71;100780.06;6460878;23;20007;-65
2021/05/11 16:33:53;;;;;;;10.55;6.72;;;;;;;15.58;72.91;100780.25;6460886;22;20053;-66
2021/05/11 16:36:24;;;;;;;11.32;6.63;;;;;;;15.54;71.86;100771.00;6460060;23;20452;-65
2021/05/11 16:38:56;;;;;;;8.15;6.50;;;;;;;15.63;72.37;100761.25;6461000;23;20015;-65
2021/05/11 16:41:27;;;;;;;10.60;6.18;;;;;;;15.63;71.86;100779.75;6460677;23;20005;-65
2021/05/11 16:43:58;;;;;;;10.88;6.93;;;;;;;15.49;71.73;100773.28;6460966;23;20011;-65
2021/05/11 16:46:29;;;;;;;9.63;6.32;;;;;;;15.60;72.82;100783.53;6460992;23;20005;-65
2021/05/11 16:49:01;;;;;;;9.90;7.07;;;;;;;15.60;72.33;100772.16;6460886;23;20039;-65
2021/05/11 16:51:32;;;;;;;11.13;7.05;;;;;;;15.43;70.61;100766.88;6460660;22;20335;-65
2021/05/11 16:54:04;;;;;;;10.10;7.07;;;;;;;15.54;71.43;100763.09;6461176;23;20040;-65
2021/05/11 16:56:35;;;;;;;9.63;7.22;;;;;;;15.48;71.49;100767.19;6459740;23;20436;-65
2021/05/11 16:59:07;;;;;;;10.02;7.70;;;;;;;15.48;71.95;100761.09;6461819;22;20320;-65
2021/05/11 17:01:39;;;;;;;11.00;7.90;;;;;;;15.46;71.46;100771.81;6460694;22;20384;-65